sensor_id;sensor_type;location;lat;lon;timestamp;P1;durP1;ratioP1;P2;durP2;ratioP2
15408;SDS011;7803;48.130;13.788;2022-10-15T00:01:38;11.65;;;10.55;;
15408;SDS011;7803;48.130;13.788;2022-10-15T00:04:41;11.73;;;10.52;;
15408;SDS011;7803;48.130;13.788;2022-10-15T00:07:43;11.05;;;10.05;;
15408;SDS011;7803;48.130;13.788;2022-10-15T00:10:45;11.32;;;10.32;;
15408;SDS011;7803;48.130;13.788;2022-10-15T00:13:48;11.40;;;10.30;;
15408;SDS011;7803;48.130;13.788;2022-10-15T00:16:52;10.77;;;9.82;;
15408;SDS011;7803;48.130;13.788;2022-10-15T00:19:54;11.32;;;10.23;;
15408;SDS011;7803;48.130;13.788;2022-10-15T00:22:59;11.13;;;10.02;;
15408;SDS011;7803;48.130;13.788;2022-10-15T00:26:02;11.30;;;10.10;;
15408;SDS011;7803;48.130;13.788;2022-10-15T00:29:08;11.55;;;10.40;;
15408;SDS011;7803;48.130;13.788;2022-10-15T00:32:10;11.38;;;10.38;;
15408;SDS011;7803;48.130;13.788;2022-10-15T00:35:12;10.77;;;9.68;;
15408;SDS011;7803;48.130;13.788;2022-10-15T00:38:14;11.50;;;10.40;;
15408;SDS011;7803;48.130;13.788;2022-10-15T00:41:17;11.15;;;10.13;;
15408;SDS011;7803;48.130;13.788;2022-10-15T00:47:49;11.15;;;10.10;;
15408;SDS011;7803;48.130;13.788;2022-10-15T00:50:53;10.93;;;9.93;;
15408;SDS011;7803;48.130;13.788;2022-10-15T00:53:55;11.85;;;10.75;;
15408;SDS011;7803;48.130;13.788;2022-10-15T00:56:57;10.90;;;9.90;;
15408;SDS011;7803;48.130;13.788;2022-10-15T01:00:04;11.20;;;10.10;;
15408;SDS011;7803;48.130;13.788;2022-10-15T01:03:08;11.27;;;10.27;;
15408;SDS011;7803;48.130;13.788;2022-10-15T01:06:11;11.32;;;10.23;;
15408;SDS011;7803;48.130;13.788;2022-10-15T01:09:13;11.35;;;10.35;;
15408;SDS011;7803;48.130;13.788;2022-10-15T01:12:17;10.98;;;9.93;;
15408;SDS011;7803;48.130;13.788;2022-10-15T01:15:28;11.77;;;10.65;;
15408;SDS011;7803;48.130;13.788;2022-10-15T01:18:39;11.45;;;10.35;;
15408;SDS011;7803;48.130;13.788;2022-10-15T01:21:46;11.30;;;10.20;;
15408;SDS011;7803;48.130;13.788;2022-10-15T01:24:57;11.85;;;10.68;;
15408;SDS011;7803;48.130;13.788;2022-10-15T01:28:13;11.25;;;9.90;;
15408;SDS011;7803;48.130;13.788;2022-10-15T01:31:27;11.63;;;10.55;;
15408;SDS011;7803;48.130;13.788;2022-10-15T01:34:37;11.43;;;10.25;;
15408;SDS011;7803;48.130;13.788;2022-10-15T01:37:48;11.52;;;10.43;;
15408;SDS011;7803;48.130;13.788;2022-10-15T01:40:56;11.30;;;10.20;;
15408;SDS011;7803;48.130;13.788;2022-10-15T01:44:01;11.70;;;10.50;;
15408;SDS011;7803;48.130;13.788;2022-10-15T01:47:10;10.90;;;9.90;;
15408;SDS011;7803;48.130;13.788;2022-10-15T01:50:16;11.52;;;10.43;;
15408;SDS011;7803;48.130;13.788;2022-10-15T01:53:21;11.23;;;10.18;;
15408;SDS011;7803;48.130;13.788;2022-10-15T01:56:25;11.00;;;9.93;;
15408;SDS011;7803;48.130;13.788;2022-10-15T01:59:30;11.05;;;10.05;;
15408;SDS011;7803;48.130;13.788;2022-10-15T02:02:34;10.98;;;9.98;;
15408;SDS011;7803;48.130;13.788;2022-10-15T02:05:37;11.38;;;10.32;;
15408;SDS011;7803;48.130;13.788;2022-10-15T02:08:44;11.75;;;10.65;;
15408;SDS011;7803;48.130;13.788;2022-10-15T02:11:59;11.57;;;10.48;;
15408;SDS011;7803;48.130;13.788;2022-10-15T02:15:10;10.60;;;9.60;;
15408;SDS011;7803;48.130;13.788;2022-10-15T02:18:19;10.15;;;9.23;;
15408;SDS011;7803;48.130;13.788;2022-10-15T02:21:29;11.15;;;10.05;;
15408;SDS011;7803;48.130;13.788;2022-10-15T02:24:36;10.80;;;9.77;;
15408;SDS011;7803;48.130;13.788;2022-10-15T02:27:41;11.25;;;10.10;;
15408;SDS011;7803;48.130;13.788;2022-10-15T02:30:47;11.60;;;10.50;;
15408;SDS011;7803;48.130;13.788;2022-10-15T02:33:54;11.55;;;10.45;;
15408;SDS011;7803;48.130;13.788;2022-10-15T02:37:02;11.20;;;10.10;;
15408;SDS011;7803;48.130;13.788;2022-10-15T02:40:06;11.50;;;10.30;;
15408;SDS011;7803;48.130;13.788;2022-10-15T02:43:09;11.90;;;10.70;;
15408;SDS011;7803;48.130;13.788;2022-10-15T02:46:13;11.75;;;10.57;;
15408;SDS011;7803;48.130;13.788;2022-10-15T02:49:19;11.15;;;10.05;;
15408;SDS011;7803;48.130;13.788;2022-10-15T02:52:21;11.18;;;10.07;;
15408;SDS011;7803;48.130;13.788;2022-10-15T02:55:23;12.35;;;11.05;;
15408;SDS011;7803;48.130;13.788;2022-10-15T02:58:25;12.18;;;11.07;;
15408;SDS011;7803;48.130;13.788;2022-10-15T03:01:28;10.93;;;9.98;;
15408;SDS011;7803;48.130;13.788;2022-10-15T03:04:31;11.48;;;10.30;;
15408;SDS011;7803;48.130;13.788;2022-10-15T03:07:33;10.98;;;9.98;;
15408;SDS011;7803;48.130;13.788;2022-10-15T03:10:35;11.18;;;10.07;;
15408;SDS011;7803;48.130;13.788;2022-10-15T03:13:37;11.30;;;10.20;;
15408;SDS011;7803;48.130;13.788;2022-10-15T03:16:40;10.95;;;9.95;;
15408;SDS011;7803;48.130;13.788;2022-10-15T03:19:43;11.30;;;10.15;;
15408;SDS011;7803;48.130;13.788;2022-10-15T03:22:45;11.07;;;9.98;;
15408;SDS011;7803;48.130;13.788;2022-10-15T03:25:47;11.75;;;10.55;;
15408;SDS011;7803;48.130;13.788;2022-10-15T03:28:49;11.00;;;10.00;;
15408;SDS011;7803;48.130;13.788;2022-10-15T03:31:51;10.40;;;9.40;;
15408;SDS011;7803;48.130;13.788;2022-10-15T03:34:54;11.32;;;10.25;;
15408;SDS011;7803;48.130;13.788;2022-10-15T03:37:56;11.23;;;10.23;;
15408;SDS011;7803;48.130;13.788;2022-10-15T03:40:58;10.70;;;9.73;;
15408;SDS011;7803;48.130;13.788;2022-10-15T03:44:01;11.10;;;10.00;;
15408;SDS011;7803;48.130;13.788;2022-10-15T03:47:03;11.30;;;10.20;;
15408;SDS011;7803;48.130;13.788;2022-10-15T03:50:07;11.25;;;10.23;;
15408;SDS011;7803;48.130;13.788;2022-10-15T03:53:09;11.27;;;10.18;;
15408;SDS011;7803;48.130;13.788;2022-10-15T03:56:11;10.82;;;9.80;;
15408;SDS011;7803;48.130;13.788;2022-10-15T03:59:13;10.73;;;9.73;;
15408;SDS011;7803;48.130;13.788;2022-10-15T04:02:16;11.38;;;10.27;;
15408;SDS011;7803;48.130;13.788;2022-10-15T04:05:19;10.52;;;9.55;;
15408;SDS011;7803;48.130;13.788;2022-10-15T04:08:21;10.15;;;9.20;;
15408;SDS011;7803;48.130;13.788;2022-10-15T04:11:23;10.18;;;9.27;;
15408;SDS011;7803;48.130;13.788;2022-10-15T04:14:26;11.52;;;10.43;;
15408;SDS011;7803;48.130;13.788;2022-10-15T04:17:28;10.80;;;9.80;;
15408;SDS011;7803;48.130;13.788;2022-10-15T04:20:31;11.45;;;10.35;;
15408;SDS011;7803;48.130;13.788;2022-10-15T04:23:33;10.57;;;9.60;;
15408;SDS011;7803;48.130;13.788;2022-10-15T04:26:35;10.90;;;9.90;;
15408;SDS011;7803;48.130;13.788;2022-10-15T04:29:37;11.38;;;10.35;;
15408;SDS011;7803;48.130;13.788;2022-10-15T04:32:39;10.45;;;9.45;;
15408;SDS011;7803;48.130;13.788;2022-10-15T04:35:43;10.43;;;9.52;;
15408;SDS011;7803;48.130;13.788;2022-10-15T04:38:45;10.77;;;9.77;;
15408;SDS011;7803;48.130;13.788;2022-10-15T04:41:47;10.25;;;9.35;;
15408;SDS011;7803;48.130;13.788;2022-10-15T04:44:49;11.25;;;10.15;;
15408;SDS011;7803;48.130;13.788;2022-10-15T04:47:51;10.38;;;9.35;;
15408;SDS011;7803;48.130;13.788;2022-10-15T04:50:54;10.35;;;9.45;;
15408;SDS011;7803;48.130;13.788;2022-10-15T04:54:03;9.95;;;9.05;;
15408;SDS011;7803;48.130;13.788;2022-10-15T04:57:05;10.32;;;9.43;;
15408;SDS011;7803;48.130;13.788;2022-10-15T05:00:07;10.27;;;9.38;;
15408;SDS011;7803;48.130;13.788;2022-10-15T05:03:10;10.48;;;9.48;;
15408;SDS011;7803;48.130;13.788;2022-10-15T05:06:14;10.10;;;9.20;;
15408;SDS011;7803;48.130;13.788;2022-10-15T05:09:17;9.98;;;9.07;;
15408;SDS011;7803;48.130;13.788;2022-10-15T05:12:19;9.65;;;8.77;;
15408;SDS011;7803;48.130;13.788;2022-10-15T05:15:21;10.20;;;9.20;;
15408;SDS011;7803;48.130;13.788;2022-10-15T05:18:25;9.77;;;8.77;;
15408;SDS011;7803;48.130;13.788;2022-10-15T05:21:29;9.63;;;8.73;;
15408;SDS011;7803;48.130;13.788;2022-10-15T05:24:33;9.73;;;8.82;;
15408;SDS011;7803;48.130;13.788;2022-10-15T05:27:35;9.27;;;8.48;;
15408;SDS011;7803;48.130;13.788;2022-10-15T05:30:37;9.95;;;8.95;;
15408;SDS011;7803;48.130;13.788;2022-10-15T05:33:39;9.63;;;8.73;;
15408;SDS011;7803;48.130;13.788;2022-10-15T05:36:42;9.13;;;8.32;;
15408;SDS011;7803;48.130;13.788;2022-10-15T05:39:44;9.27;;;8.43;;
15408;SDS011;7803;48.130;13.788;2022-10-15T05:42:49;9.18;;;8.38;;
15408;SDS011;7803;48.130;13.788;2022-10-15T05:45:52;9.52;;;8.63;;
15408;SDS011;7803;48.130;13.788;2022-10-15T05:48:55;9.45;;;8.63;;
15408;SDS011;7803;48.130;13.788;2022-10-15T05:51:59;9.60;;;8.70;;
15408;SDS011;7803;48.130;13.788;2022-10-15T05:55:01;9.07;;;8.27;;
15408;SDS011;7803;48.130;13.788;2022-10-15T05:58:03;9.18;;;8.38;;
15408;SDS011;7803;48.130;13.788;2022-10-15T06:01:07;8.52;;;7.82;;
15408;SDS011;7803;48.130;13.788;2022-10-15T06:04:11;9.10;;;8.30;;
15408;SDS011;7803;48.130;13.788;2022-10-15T06:07:14;9.18;;;8.38;;
15408;SDS011;7803;48.130;13.788;2022-10-15T06:10:16;8.73;;;7.95;;
15408;SDS011;7803;48.130;13.788;2022-10-15T06:13:18;8.43;;;7.72;;
15408;SDS011;7803;48.130;13.788;2022-10-15T06:16:20;8.98;;;8.18;;
15408;SDS011;7803;48.130;13.788;2022-10-15T06:19:22;9.00;;;8.20;;
15408;SDS011;7803;48.130;13.788;2022-10-15T06:22:26;8.88;;;8.07;;
15408;SDS011;7803;48.130;13.788;2022-10-15T06:25:30;9.05;;;8.20;;
15408;SDS011;7803;48.130;13.788;2022-10-15T06:28:34;8.27;;;7.57;;
15408;SDS011;7803;48.130;13.788;2022-10-15T06:31:37;8.93;;;8.13;;
15408;SDS011;7803;48.130;13.788;2022-10-15T06:34:39;8.52;;;7.75;;
15408;SDS011;7803;48.130;13.788;2022-10-15T06:37:42;8.48;;;7.78;;
15408;SDS011;7803;48.130;13.788;2022-10-15T06:40:44;8.63;;;7.82;;
15408;SDS011;7803;48.130;13.788;2022-10-15T06:43:47;8.20;;;7.47;;
15408;SDS011;7803;48.130;13.788;2022-10-15T06:46:49;8.38;;;7.68;;
15408;SDS011;7803;48.130;13.788;2022-10-15T06:49:51;8.48;;;7.68;;
15408;SDS011;7803;48.130;13.788;2022-10-15T06:52:55;8.43;;;7.63;;
15408;SDS011;7803;48.130;13.788;2022-10-15T06:55:57;7.88;;;7.18;;
15408;SDS011;7803;48.130;13.788;2022-10-15T06:59:00;8.13;;;7.43;;
15408;SDS011;7803;48.130;13.788;2022-10-15T07:02:02;7.88;;;7.18;;
15408;SDS011;7803;48.130;13.788;2022-10-15T07:05:04;8.07;;;7.38;;
15408;SDS011;7803;48.130;13.788;2022-10-15T07:08:08;7.75;;;7.05;;
15408;SDS011;7803;48.130;13.788;2022-10-15T07:11:10;8.40;;;7.60;;
15408;SDS011;7803;48.130;13.788;2022-10-15T07:14:13;8.52;;;7.72;;
15408;SDS011;7803;48.130;13.788;2022-10-15T07:17:15;7.82;;;7.10;;
15408;SDS011;7803;48.130;13.788;2022-10-15T07:20:18;7.60;;;6.93;;
15408;SDS011;7803;48.130;13.788;2022-10-15T07:23:21;8.00;;;7.30;;
15408;SDS011;7803;48.130;13.788;2022-10-15T07:26:23;7.70;;;7.00;;
15408;SDS011;7803;48.130;13.788;2022-10-15T07:29:27;7.45;;;6.65;;
15408;SDS011;7803;48.130;13.788;2022-10-15T07:32:30;7.93;;;7.13;;
15408;SDS011;7803;48.130;13.788;2022-10-15T07:35:32;7.70;;;7.00;;
15408;SDS011;7803;48.130;13.788;2022-10-15T07:38:36;7.47;;;6.75;;
15408;SDS011;7803;48.130;13.788;2022-10-15T07:41:39;8.00;;;7.30;;
15408;SDS011;7803;48.130;13.788;2022-10-15T07:44:41;8.60;;;7.80;;
15408;SDS011;7803;48.130;13.788;2022-10-15T07:47:43;8.60;;;7.03;;
15408;SDS011;7803;48.130;13.788;2022-10-15T07:50:45;7.60;;;6.90;;
15408;SDS011;7803;48.130;13.788;2022-10-15T07:53:48;8.05;;;7.32;;
15408;SDS011;7803;48.130;13.788;2022-10-15T07:56:50;7.28;;;6.68;;
15408;SDS011;7803;48.130;13.788;2022-10-15T07:59:52;7.75;;;7.05;;
15408;SDS011;7803;48.130;13.788;2022-10-15T08:02:54;7.10;;;6.50;;
15408;SDS011;7803;48.130;13.788;2022-10-15T08:05:58;7.78;;;7.07;;
15408;SDS011;7803;48.130;13.788;2022-10-15T08:09:02;7.47;;;6.78;;
15408;SDS011;7803;48.130;13.788;2022-10-15T08:12:05;7.15;;;6.50;;
15408;SDS011;7803;48.130;13.788;2022-10-15T08:15:07;7.05;;;6.35;;
15408;SDS011;7803;48.130;13.788;2022-10-15T08:18:10;7.22;;;6.57;;
15408;SDS011;7803;48.130;13.788;2022-10-15T08:21:12;6.93;;;6.32;;
15408;SDS011;7803;48.130;13.788;2022-10-15T08:24:15;6.97;;;6.30;;
15408;SDS011;7803;48.130;13.788;2022-10-15T08:27:17;7.40;;;6.70;;
15408;SDS011;7803;48.130;13.788;2022-10-15T08:30:19;6.93;;;6.22;;
15408;SDS011;7803;48.130;13.788;2022-10-15T08:33:21;7.45;;;6.72;;
15408;SDS011;7803;48.130;13.788;2022-10-15T08:36:23;7.00;;;6.38;;
15408;SDS011;7803;48.130;13.788;2022-10-15T08:39:27;7.35;;;6.63;;
15408;SDS011;7803;48.130;13.788;2022-10-15T08:42:30;6.78;;;6.10;;
15408;SDS011;7803;48.130;13.788;2022-10-15T08:45:37;7.30;;;6.60;;
15408;SDS011;7803;48.130;13.788;2022-10-15T08:48:45;7.75;;;6.95;;
15408;SDS011;7803;48.130;13.788;2022-10-15T08:51:50;6.90;;;6.20;;
15408;SDS011;7803;48.130;13.788;2022-10-15T08:54:56;7.20;;;6.50;;
15408;SDS011;7803;48.130;13.788;2022-10-15T08:58:02;6.88;;;6.15;;
15408;SDS011;7803;48.130;13.788;2022-10-15T09:01:14;6.40;;;5.80;;
15408;SDS011;7803;48.130;13.788;2022-10-15T09:04:23;6.75;;;6.05;;
15408;SDS011;7803;48.130;13.788;2022-10-15T09:07:33;6.75;;;6.15;;
15408;SDS011;7803;48.130;13.788;2022-10-15T09:10:42;7.10;;;5.97;;
15408;SDS011;7803;48.130;13.788;2022-10-15T09:13:46;6.90;;;6.30;;
15408;SDS011;7803;48.130;13.788;2022-10-15T09:16:49;16.60;;;8.40;;
15408;SDS011;7803;48.130;13.788;2022-10-15T09:19:52;12.43;;;7.35;;
15408;SDS011;7803;48.130;13.788;2022-10-15T09:22:56;17.73;;;8.40;;
15408;SDS011;7803;48.130;13.788;2022-10-15T09:26:01;16.17;;;8.25;;
15408;SDS011;7803;48.130;13.788;2022-10-15T09:29:11;12.45;;;6.25;;
15408;SDS011;7803;48.130;13.788;2022-10-15T09:32:18;5.82;;;4.15;;
15408;SDS011;7803;48.130;13.788;2022-10-15T09:35:27;7.55;;;4.00;;
15408;SDS011;7803;48.130;13.788;2022-10-15T09:38:33;6.38;;;3.28;;
15408;SDS011;7803;48.130;13.788;2022-10-15T09:41:46;6.38;;;3.65;;
15408;SDS011;7803;48.130;13.788;2022-10-15T09:44:56;10.43;;;4.10;;
15408;SDS011;7803;48.130;13.788;2022-10-15T09:48:00;15.55;;;5.30;;
15408;SDS011;7803;48.130;13.788;2022-10-15T09:51:06;22.40;;;7.10;;
15408;SDS011;7803;48.130;13.788;2022-10-15T09:54:17;19.30;;;6.38;;
15408;SDS011;7803;48.130;13.788;2022-10-15T09:57:26;22.90;;;8.38;;
15408;SDS011;7803;48.130;13.788;2022-10-15T10:07:26;11.98;;;4.85;;
15408;SDS011;7803;48.130;13.788;2022-10-15T10:10:30;8.98;;;4.15;;
15408;SDS011;7803;48.130;13.788;2022-10-15T10:13:39;15.07;;;4.15;;
15408;SDS011;7803;48.130;13.788;2022-10-15T10:20:13;5.47;;;2.70;;
15408;SDS011;7803;48.130;13.788;2022-10-15T10:23:19;4.57;;;2.47;;
15408;SDS011;7803;48.130;13.788;2022-10-15T10:26:23;9.02;;;2.25;;
15408;SDS011;7803;48.130;13.788;2022-10-15T10:29:26;5.00;;;2.00;;
15408;SDS011;7803;48.130;13.788;2022-10-15T10:32:31;6.03;;;2.17;;
15408;SDS011;7803;48.130;13.788;2022-10-15T10:35:35;4.03;;;1.85;;
15408;SDS011;7803;48.130;13.788;2022-10-15T10:38:53;5.35;;;2.50;;
15408;SDS011;7803;48.130;13.788;2022-10-15T10:41:57;3.83;;;1.90;;
15408;SDS011;7803;48.130;13.788;2022-10-15T10:45:16;5.65;;;1.90;;
15408;SDS011;7803;48.130;13.788;2022-10-15T10:48:21;4.43;;;1.80;;
15408;SDS011;7803;48.130;13.788;2022-10-15T10:51:25;5.63;;;1.88;;
15408;SDS011;7803;48.130;13.788;2022-10-15T10:54:30;3.55;;;1.70;;
15408;SDS011;7803;48.130;13.788;2022-10-15T10:57:42;2.53;;;1.60;;
15408;SDS011;7803;48.130;13.788;2022-10-15T11:00:51;3.65;;;1.27;;
15408;SDS011;7803;48.130;13.788;2022-10-15T11:03:55;1.63;;;1.20;;
15408;SDS011;7803;48.130;13.788;2022-10-15T11:06:58;2.85;;;1.30;;
15408;SDS011;7803;48.130;13.788;2022-10-15T11:10:05;1.73;;;1.30;;
15408;SDS011;7803;48.130;13.788;2022-10-15T11:13:16;2.60;;;1.10;;
15408;SDS011;7803;48.130;13.788;2022-10-15T11:16:39;3.08;;;1.58;;
15408;SDS011;7803;48.130;13.788;2022-10-15T11:19:50;2.35;;;1.40;;
15408;SDS011;7803;48.130;13.788;2022-10-15T11:23:01;3.67;;;1.77;;
15408;SDS011;7803;48.130;13.788;2022-10-15T11:26:18;3.58;;;1.50;;
15408;SDS011;7803;48.130;13.788;2022-10-15T11:29:31;3.13;;;1.85;;
15408;SDS011;7803;48.130;13.788;2022-10-15T11:32:40;4.53;;;1.92;;
15408;SDS011;7803;48.130;13.788;2022-10-15T11:35:50;2.28;;;1.45;;
15408;SDS011;7803;48.130;13.788;2022-10-15T11:39:03;1.60;;;1.27;;
15408;SDS011;7803;48.130;13.788;2022-10-15T11:42:18;2.35;;;1.25;;
15408;SDS011;7803;48.130;13.788;2022-10-15T11:45:33;2.55;;;1.50;;
15408;SDS011;7803;48.130;13.788;2022-10-15T11:48:48;2.55;;;1.30;;
15408;SDS011;7803;48.130;13.788;2022-10-15T11:52:08;2.58;;;1.40;;
15408;SDS011;7803;48.130;13.788;2022-10-15T11:55:31;2.38;;;1.25;;
15408;SDS011;7803;48.130;13.788;2022-10-15T11:58:38;6.63;;;1.92;;
15408;SDS011;7803;48.130;13.788;2022-10-15T12:01:45;6.05;;;2.03;;
15408;SDS011;7803;48.130;13.788;2022-10-15T12:04:53;13.23;;;2.63;;
15408;SDS011;7803;48.130;13.788;2022-10-15T12:08:00;17.73;;;3.00;;
15408;SDS011;7803;48.130;13.788;2022-10-15T12:11:06;13.43;;;2.80;;
15408;SDS011;7803;48.130;13.788;2022-10-15T12:14:21;13.55;;;2.88;;
15408;SDS011;7803;48.130;13.788;2022-10-15T12:17:29;15.18;;;3.08;;
15408;SDS011;7803;48.130;13.788;2022-10-15T12:20:43;14.02;;;2.90;;
15408;SDS011;7803;48.130;13.788;2022-10-15T12:23:45;12.13;;;3.17;;
15408;SDS011;7803;48.130;13.788;2022-10-15T12:26:47;14.75;;;3.25;;
15408;SDS011;7803;48.130;13.788;2022-10-15T12:29:50;13.18;;;3.00;;
15408;SDS011;7803;48.130;13.788;2022-10-15T12:36:40;12.35;;;2.70;;
15408;SDS011;7803;48.130;13.788;2022-10-15T12:39:42;14.95;;;3.33;;
15408;SDS011;7803;48.130;13.788;2022-10-15T12:42:46;10.88;;;2.80;;
15408;SDS011;7803;48.130;13.788;2022-10-15T12:45:51;10.50;;;2.95;;
15408;SDS011;7803;48.130;13.788;2022-10-15T12:48:56;9.88;;;2.72;;
15408;SDS011;7803;48.130;13.788;2022-10-15T12:52:00;9.75;;;2.30;;
15408;SDS011;7803;48.130;13.788;2022-10-15T12:55:26;12.73;;;2.72;;
15408;SDS011;7803;48.130;13.788;2022-10-15T12:58:31;12.52;;;2.65;;
15408;SDS011;7803;48.130;13.788;2022-10-15T13:01:48;9.60;;;2.78;;
15408;SDS011;7803;48.130;13.788;2022-10-15T13:04:52;8.55;;;2.60;;
15408;SDS011;7803;48.130;13.788;2022-10-15T13:07:56;9.43;;;2.38;;
15408;SDS011;7803;48.130;13.788;2022-10-15T13:11:01;7.90;;;2.08;;
15408;SDS011;7803;48.130;13.788;2022-10-15T13:14:10;9.77;;;2.40;;
15408;SDS011;7803;48.130;13.788;2022-10-15T13:17:19;6.32;;;2.05;;
15408;SDS011;7803;48.130;13.788;2022-10-15T13:20:30;6.18;;;1.85;;
15408;SDS011;7803;48.130;13.788;2022-10-15T13:23:43;6.10;;;1.85;;
15408;SDS011;7803;48.130;13.788;2022-10-15T13:26:46;4.18;;;1.70;;
15408;SDS011;7803;48.130;13.788;2022-10-15T13:29:53;5.40;;;1.80;;
15408;SDS011;7803;48.130;13.788;2022-10-15T13:32:56;7.32;;;2.10;;
15408;SDS011;7803;48.130;13.788;2022-10-15T13:36:03;6.90;;;2.25;;
15408;SDS011;7803;48.130;13.788;2022-10-15T13:39:20;7.63;;;2.22;;
15408;SDS011;7803;48.130;13.788;2022-10-15T13:42:27;5.70;;;1.80;;
15408;SDS011;7803;48.130;13.788;2022-10-15T13:45:30;6.20;;;2.10;;
15408;SDS011;7803;48.130;13.788;2022-10-15T13:48:39;5.35;;;1.92;;
15408;SDS011;7803;48.130;13.788;2022-10-15T13:51:42;5.13;;;2.00;;
15408;SDS011;7803;48.130;13.788;2022-10-15T13:54:48;4.28;;;1.85;;
15408;SDS011;7803;48.130;13.788;2022-10-15T13:57:50;4.90;;;2.05;;
15408;SDS011;7803;48.130;13.788;2022-10-15T14:01:00;5.80;;;1.80;;
15408;SDS011;7803;48.130;13.788;2022-10-15T14:04:12;4.72;;;1.98;;
15408;SDS011;7803;48.130;13.788;2022-10-15T14:07:21;6.82;;;1.90;;
15408;SDS011;7803;48.130;13.788;2022-10-15T14:10:27;4.03;;;1.83;;
15408;SDS011;7803;48.130;13.788;2022-10-15T14:13:29;3.97;;;1.50;;
15408;SDS011;7803;48.130;13.788;2022-10-15T14:16:32;4.35;;;2.28;;
15408;SDS011;7803;48.130;13.788;2022-10-15T14:19:40;3.72;;;1.77;;
15408;SDS011;7803;48.130;13.788;2022-10-15T14:22:49;3.63;;;1.67;;
15408;SDS011;7803;48.130;13.788;2022-10-15T14:25:54;4.80;;;1.73;;
15408;SDS011;7803;48.130;13.788;2022-10-15T14:28:57;3.90;;;1.63;;
15408;SDS011;7803;48.130;13.788;2022-10-15T14:32:00;3.88;;;1.95;;
15408;SDS011;7803;48.130;13.788;2022-10-15T14:35:02;3.40;;;1.63;;
15408;SDS011;7803;48.130;13.788;2022-10-15T14:38:13;5.57;;;1.90;;
15408;SDS011;7803;48.130;13.788;2022-10-15T14:41:25;3.40;;;1.90;;
15408;SDS011;7803;48.130;13.788;2022-10-15T14:44:39;4.82;;;1.60;;
15408;SDS011;7803;48.130;13.788;2022-10-15T14:47:42;4.03;;;1.55;;
15408;SDS011;7803;48.130;13.788;2022-10-15T14:50:46;3.97;;;1.70;;
15408;SDS011;7803;48.130;13.788;2022-10-15T14:53:48;3.60;;;1.55;;
15408;SDS011;7803;48.130;13.788;2022-10-15T14:56:52;4.20;;;1.67;;
15408;SDS011;7803;48.130;13.788;2022-10-15T14:59:55;5.47;;;1.98;;
15408;SDS011;7803;48.130;13.788;2022-10-15T15:03:00;1.90;;;1.40;;
15408;SDS011;7803;48.130;13.788;2022-10-15T15:06:04;3.10;;;1.70;;
15408;SDS011;7803;48.130;13.788;2022-10-15T15:09:06;3.13;;;1.60;;
15408;SDS011;7803;48.130;13.788;2022-10-15T15:12:15;3.25;;;1.52;;
15408;SDS011;7803;48.130;13.788;2022-10-15T15:15:21;4.43;;;1.50;;
15408;SDS011;7803;48.130;13.788;2022-10-15T15:18:24;3.83;;;1.70;;
15408;SDS011;7803;48.130;13.788;2022-10-15T15:21:27;4.45;;;1.80;;
15408;SDS011;7803;48.130;13.788;2022-10-15T15:24:29;4.53;;;1.88;;
15408;SDS011;7803;48.130;13.788;2022-10-15T15:27:32;3.42;;;1.50;;
15408;SDS011;7803;48.130;13.788;2022-10-15T15:30:38;2.40;;;1.52;;
15408;SDS011;7803;48.130;13.788;2022-10-15T15:33:42;4.43;;;1.95;;
15408;SDS011;7803;48.130;13.788;2022-10-15T15:36:44;2.70;;;1.40;;
15408;SDS011;7803;48.130;13.788;2022-10-15T15:39:46;3.60;;;1.60;;
15408;SDS011;7803;48.130;13.788;2022-10-15T15:42:50;2.58;;;1.40;;
15408;SDS011;7803;48.130;13.788;2022-10-15T15:45:52;3.80;;;1.42;;
15408;SDS011;7803;48.130;13.788;2022-10-15T15:48:54;3.53;;;1.70;;
15408;SDS011;7803;48.130;13.788;2022-10-15T15:51:57;2.30;;;1.60;;
15408;SDS011;7803;48.130;13.788;2022-10-15T15:54:59;3.35;;;1.80;;
15408;SDS011;7803;48.130;13.788;2022-10-15T15:58:03;3.17;;;1.95;;
15408;SDS011;7803;48.130;13.788;2022-10-15T16:01:05;2.72;;;1.60;;
15408;SDS011;7803;48.130;13.788;2022-10-15T16:04:07;2.33;;;1.40;;
15408;SDS011;7803;48.130;13.788;2022-10-15T16:07:09;2.30;;;1.50;;
15408;SDS011;7803;48.130;13.788;2022-10-15T16:10:11;2.70;;;1.65;;
15408;SDS011;7803;48.130;13.788;2022-10-15T16:13:14;2.53;;;1.50;;
15408;SDS011;7803;48.130;13.788;2022-10-15T16:16:16;1.92;;;1.40;;
15408;SDS011;7803;48.130;13.788;2022-10-15T16:19:18;2.63;;;1.70;;
15408;SDS011;7803;48.130;13.788;2022-10-15T16:22:20;3.90;;;1.63;;
15408;SDS011;7803;48.130;13.788;2022-10-15T16:25:22;2.20;;;1.75;;
15408;SDS011;7803;48.130;13.788;2022-10-15T16:28:25;2.58;;;1.77;;
15408;SDS011;7803;48.130;13.788;2022-10-15T16:31:27;3.03;;;1.67;;
15408;SDS011;7803;48.130;13.788;2022-10-15T16:34:31;3.15;;;1.65;;
15408;SDS011;7803;48.130;13.788;2022-10-15T16:37:33;2.83;;;1.70;;
15408;SDS011;7803;48.130;13.788;2022-10-15T16:40:36;2.25;;;1.30;;
15408;SDS011;7803;48.130;13.788;2022-10-15T16:43:40;1.90;;;1.58;;
15408;SDS011;7803;48.130;13.788;2022-10-15T16:46:42;2.67;;;1.60;;
15408;SDS011;7803;48.130;13.788;2022-10-15T16:49:44;3.03;;;2.00;;
15408;SDS011;7803;48.130;13.788;2022-10-15T16:52:46;4.22;;;2.00;;
15408;SDS011;7803;48.130;13.788;2022-10-15T16:55:48;2.50;;;1.70;;
15408;SDS011;7803;48.130;13.788;2022-10-15T16:58:52;2.05;;;1.60;;
15408;SDS011;7803;48.130;13.788;2022-10-15T17:01:54;2.28;;;1.60;;
15408;SDS011;7803;48.130;13.788;2022-10-15T17:04:56;2.05;;;1.50;;
15408;SDS011;7803;48.130;13.788;2022-10-15T17:07:59;2.63;;;1.60;;
15408;SDS011;7803;48.130;13.788;2022-10-15T17:11:01;2.15;;;1.70;;
15408;SDS011;7803;48.130;13.788;2022-10-15T17:14:05;2.65;;;1.80;;
15408;SDS011;7803;48.130;13.788;2022-10-15T17:17:09;3.05;;;1.92;;
15408;SDS011;7803;48.130;13.788;2022-10-15T17:20:12;3.05;;;1.80;;
15408;SDS011;7803;48.130;13.788;2022-10-15T17:23:14;2.63;;;1.92;;
15408;SDS011;7803;48.130;13.788;2022-10-15T17:26:18;2.30;;;1.95;;
15408;SDS011;7803;48.130;13.788;2022-10-15T17:29:24;3.20;;;2.25;;
15408;SDS011;7803;48.130;13.788;2022-10-15T17:32:26;2.00;;;1.80;;
15408;SDS011;7803;48.130;13.788;2022-10-15T17:35:29;2.08;;;1.80;;
15408;SDS011;7803;48.130;13.788;2022-10-15T17:38:31;2.08;;;1.83;;
15408;SDS011;7803;48.130;13.788;2022-10-15T17:41:33;2.83;;;1.83;;
15408;SDS011;7803;48.130;13.788;2022-10-15T17:44:37;3.03;;;2.00;;
15408;SDS011;7803;48.130;13.788;2022-10-15T17:47:40;2.55;;;1.80;;
15408;SDS011;7803;48.130;13.788;2022-10-15T17:50:43;2.10;;;1.90;;
15408;SDS011;7803;48.130;13.788;2022-10-15T17:53:45;2.25;;;2.05;;
15408;SDS011;7803;48.130;13.788;2022-10-15T17:56:49;2.40;;;2.10;;
15408;SDS011;7803;48.130;13.788;2022-10-15T17:59:53;4.60;;;2.63;;
15408;SDS011;7803;48.130;13.788;2022-10-15T18:02:55;2.70;;;2.30;;
15408;SDS011;7803;48.130;13.788;2022-10-15T18:06:04;2.85;;;2.50;;
15408;SDS011;7803;48.130;13.788;2022-10-15T18:09:07;2.35;;;2.03;;
15408;SDS011;7803;48.130;13.788;2022-10-15T18:12:10;2.60;;;2.40;;
15408;SDS011;7803;48.130;13.788;2022-10-15T18:15:14;2.60;;;2.40;;
15408;SDS011;7803;48.130;13.788;2022-10-15T18:18:16;4.03;;;2.83;;
15408;SDS011;7803;48.130;13.788;2022-10-15T18:21:19;3.85;;;3.20;;
15408;SDS011;7803;48.130;13.788;2022-10-15T18:24:23;2.85;;;2.60;;
15408;SDS011;7803;48.130;13.788;2022-10-15T18:27:26;3.30;;;2.92;;
15408;SDS011;7803;48.130;13.788;2022-10-15T18:30:30;3.40;;;3.10;;
15408;SDS011;7803;48.130;13.788;2022-10-15T18:33:33;3.28;;;2.90;;
15408;SDS011;7803;48.130;13.788;2022-10-15T18:36:40;3.53;;;3.10;;
15408;SDS011;7803;48.130;13.788;2022-10-15T18:39:43;4.65;;;3.40;;
15408;SDS011;7803;48.130;13.788;2022-10-15T18:42:46;3.75;;;3.20;;